Time;durP1;ratioP1;P1;durP2;ratioP2;P2;SDS_P1;SDS_P2;PMS_P1;PMS_P2;Temp;Humidity;BMP_temperature;BMP_pressure;BME280_temperature;BME280_humidity;BME280_pressure;Samples;Min_cycle;Max_cycle;Signal;HPM_P1;HPM_P2
2021/12/12 00:00:57;;;;;;;4.10;3.70;;;;;;;8.94;81.41;100121.50;2064456;28;20404;-70
2021/12/12 00:02:06;;;;;;;3.90;3.40;;;;;;;8.95;81.28;100106.47;2064472;28;20790;-69
2021/12/12 00:03:19;;;;;;;3.43;3.00;;;;;;;8.47;81.39;100026.41;2071292;28;20419;-69
2021/12/12 00:04:31;;;;;;;3.13;2.83;;;;;;;8.96;81.23;100099.75;2070426;28;20467;-69
2021/12/12 00:05:44;;;;;;;3.63;3.23;;;;;;;8.96;81.29;100094.22;2064290;28;20432;-70
2021/12/12 00:06:52;;;;;;;3.67;2.93;;;;;;;8.86;81.65;100095.25;2064441;28;20532;-69
2021/12/12 00:07:54;;;;;;;3.43;2.70;;;;;;;8.84;81.78;100089.38;2064519;28;20445;-69
2021/12/12 00:09:03;;;;;;;3.73;3.10;;;;;;;8.89;81.64;100083.34;2066021;28;20787;-69
2021/12/12 00:10:12;;;;;;;5.73;2.90;;;;;;;8.95;81.81;100087.13;2065898;28;20412;-70
2021/12/12 00:11:16;;;;;;;3.73;3.10;;;;;;;9.01;81.58;100080.63;2066203;28;20746;-70
2021/12/12 00:12:23;;;;;;;5.40;3.30;;;;;;;9.03;81.36;100078.19;2065068;28;20809;-70
2021/12/12 00:13:28;;;;;;;4.73;3.33;;;;;;;9.07;81.64;100078.91;2065963;28;20407;-70
2021/12/12 00:14:32;;;;;;;5.37;3.83;;;;;;;8.59;81.14;100001.63;2066190;28;20432;-70
2021/12/12 00:15:33;;;;;;;3.90;3.50;;;;;;;9.00;81.09;100070.78;2065867;28;20429;-70
2021/12/12 00:16:34;;;;;;;6.00;4.10;;;;;;;9.03;81.43;100072.69;2066145;28;20416;-69
2021/12/12 00:17:35;;;;;;;4.10;3.70;;;;;;;9.05;81.28;100072.25;2065986;28;20178;-70
2021/12/12 00:18:36;;;;;;;4.77;4.10;;;;;;;9.09;81.01;100072.94;2066134;28;20631;-70
2021/12/12 00:19:37;;;;;;;5.10;4.20;;;;;;;8.59;81.22;99985.06;2065940;28;20453;-70
2021/12/12 00:20:38;;;;;;;7.30;4.27;;;;;;;8.73;80.59;100000.47;2066111;28;20420;-70
2021/12/12 00:21:42;;;;;;;6.13;4.77;;;;;;;9.25;80.68;100075.66;2065054;28;20433;-70
2021/12/12 00:22:43;;;;;;;5.23;4.40;;;;;;;9.24;80.63;100074.91;2064778;28;20456;-70
2021/12/12 00:23:44;;;;;;;4.93;4.33;;;;;;;9.09;80.72;100059.13;2065916;28;20414;-70
2021/12/12 00:24:45;;;;;;;5.37;4.30;;;;;;;9.14;80.22;100050.28;2065988;28;20635;-70
2021/12/12 00:25:50;;;;;;;4.83;4.00;;;;;;;8.57;80.32;99964.59;2065980;28;20954;-70
2021/12/12 00:26:53;;;;;;;5.53;4.47;;;;;;;9.09;80.65;100056.34;2065290;28;20492;-70
2021/12/12 00:27:54;;;;;;;5.13;4.53;;;;;;;8.96;80.47;100039.72;2065254;28;20486;-70
2021/12/12 00:28:54;;;;;;;4.27;3.67;;;;;;;9.28;79.95;100066.50;2065420;28;20448;-69
2021/12/12 00:30:02;;;;;;;4.50;3.90;;;;;;;9.41;80.12;100084.69;2065817;28;20272;-70
2021/12/12 00:31:09;;;;;;;5.40;3.40;;;;;;;8.90;79.66;99999.22;2066037;28;20261;-70
2021/12/12 00:32:17;;;;;;;4.57;3.70;;;;;;;9.33;79.58;100074.25;2065703;28;20394;-70
2021/12/12 00:33:19;;;;;;;5.07;2.90;;;;;;;9.45;79.61;100087.34;2066120;28;20420;-70
2021/12/12 00:34:20;;;;;;;4.40;3.63;;;;;;;9.30;79.79;100086.97;2065825;28;20585;-70
2021/12/12 00:35:22;;;;;;;4.80;3.87;;;;;;;9.19;80.09;100069.13;2064697;28;20436;-70
2021/12/12 00:36:24;;;;;;;4.23;3.50;;;;;;;9.24;80.43;100068.59;2065010;28;20421;-70
2021/12/12 00:37:26;;;;;;;5.53;4.10;;;;;;;9.17;80.63;100052.97;2065382;28;20791;-70
2021/12/12 00:38:29;;;;;;;4.60;3.60;;;;;;;9.45;80.14;100081.81;2073407;28;20444;-70
2021/12/12 00:39:33;;;;;;;4.63;3.63;;;;;;;9.50;79.96;100075.75;2065135;28;20799;-70
2021/12/12 00:40:38;;;;;;;4.83;3.60;;;;;;;9.62;79.52;100080.53;2065363;28;20424;-70
2021/12/12 00:41:51;;;;;;;5.17;3.83;;;;;;;9.52;79.18;100063.03;2065858;28;20449;-70
2021/12/12 00:42:55;;;;;;;4.00;3.27;;;;;;;9.69;79.01;100072.06;2072900;28;20420;-70
2021/12/12 00:43:59;;;;;;;4.00;3.30;;;;;;;9.65;79.14;100077.69;2072817;28;20510;-70
2021/12/12 00:45:07;;;;;;;4.17;3.47;;;;;;;9.55;79.42;100070.47;2065956;28;20504;-70
2021/12/12 00:46:09;;;;;;;4.97;4.27;;;;;;;9.61;79.21;100074.25;2065975;28;20891;-70
2021/12/12 00:47:11;;;;;;;4.00;3.50;;;;;;;9.63;79.63;100074.56;2064944;28;20527;-70
2021/12/12 00:48:12;;;;;;;7.03;2.90;;;;;;;9.60;79.27;100058.88;2065086;28;21041;-70
2021/12/12 00:49:14;;;;;;;3.53;2.67;;;;;;;9.68;78.88;100071.25;2065813;28;20802;-70
2021/12/12 00:50:28;;;;;;;3.00;2.70;;;;;;;9.69;79.09;100072.81;2065659;28;20257;-70
2021/12/12 00:51:33;;;;;;;3.43;2.63;;;;;;;9.73;79.09;100075.50;2065951;28;20425;-69
2021/12/12 00:52:33;;;;;;;3.33;2.70;;;;;;;9.60;78.81;100050.56;2072761;28;20466;-70
2021/12/12 00:53:34;;;;;;;3.07;2.67;;;;;;;9.78;79.17;100078.47;2073228;28;20570;-70
2021/12/12 00:54:35;;;;;;;2.80;2.50;;;;;;;9.77;79.24;100076.94;2065912;28;20175;-70
2021/12/12 00:55:38;;;;;;;4.67;3.50;;;;;;;9.67;78.67;100064.19;2064774;28;20174;-70
2021/12/12 00:56:39;;;;;;;4.10;3.27;;;;;;;9.39;78.65;100015.19;2065874;28;20950;-70
2021/12/12 00:57:39;;;;;;;3.73;3.33;;;;;;;9.91;78.44;100098.66;2065907;28;20787;-70
2021/12/12 00:58:40;;;;;;;3.60;3.13;;;;;;;9.78;78.42;100094.31;2065923;28;20185;-70
2021/12/12 00:59:44;;;;;;;3.67;3.23;;;;;;;9.96;78.42;100125.81;2065692;28;20606;-70
2021/12/12 01:00:50;;;;;;;3.53;3.20;;;;;;;10.01;78.35;100119.72;2065865;28;20183;-70
2021/12/12 01:01:51;;;;;;;3.10;2.77;;;;;;;10.10;78.00;100127.41;2065777;28;20414;-70
2021/12/12 01:02:54;;;;;;;3.63;2.93;;;;;;;10.15;78.22;100135.91;2065150;28;20804;-70
2021/12/12 01:03:59;;;;;;;4.63;3.13;;;;;;;9.64;77.77;100054.00;2073034;28;20462;-70
2021/12/12 01:05:03;;;;;;;4.87;3.00;;;;;;;9.71;77.56;100067.63;2071816;28;20439;-69
2021/12/12 01:06:05;;;;;;;6.07;3.57;;;;;;;10.21;77.42;100141.69;2065757;28;20445;-70
2021/12/12 01:07:11;;;;;;;4.23;3.40;;;;;;;10.16;77.42;100147.78;2065668;28;20523;-70
2021/12/12 01:08:14;;;;;;;4.70;4.07;;;;;;;10.19;77.31;100144.16;2065775;28;20454;-70
2021/12/12 01:09:26;;;;;;;4.93;3.87;;;;;;;9.77;76.96;100089.97;2065827;28;20452;-70
2021/12/12 01:10:50;;;;;;;5.10;4.30;;;;;;;10.28;77.07;100163.63;2065712;28;20409;-70
2021/12/12 01:11:53;;;;;;;5.43;3.70;;;;;;;10.30;76.88;100166.75;2065625;28;20954;-70
2021/12/12 01:12:56;;;;;;;4.67;4.20;;;;;;;9.97;76.89;100123.78;2064529;28;20471;-70
2021/12/12 01:13:58;;;;;;;4.90;3.70;;;;;;;10.17;76.71;100161.19;2064971;28;20476;-70
2021/12/12 01:15:11;;;;;;;4.57;3.73;;;;;;;10.28;76.71;100172.72;2073052;28;20468;-70
2021/12/12 01:16:34;;;;;;;5.13;3.67;;;;;;;10.30;76.70;100166.75;2071491;28;20786;-70
2021/12/12 01:17:41;;;;;;;3.80;3.40;;;;;;;9.96;76.65;100139.66;2065255;28;20394;-70
2021/12/12 01:18:46;;;;;;;6.17;3.00;;;;;;;10.14;76.58;100145.44;2065571;28;20402;-70
2021/12/12 01:19:55;;;;;;;3.60;3.30;;;;;;;10.33;76.55;100169.41;2064748;28;21319;-70
2021/12/12 01:21:10;;;;;;;3.43;3.13;;;;;;;10.33;76.54;100158.34;2065183;28;20476;-70
2021/12/12 01:22:16;;;;;;;3.63;3.27;;;;;;;10.36;76.34;100153.91;2065383;28;20888;-70
2021/12/12 01:23:39;;;;;;;3.67;3.33;;;;;;;10.35;76.23;100138.50;2065623;28;20563;-70
2021/12/12 01:24:45;;;;;;;3.90;3.27;;;;;;;10.06;76.37;100091.53;2065592;28;20406;-70
2021/12/12 01:25:48;;;;;;;4.00;3.17;;;;;;;10.37;76.22;100127.75;2065514;28;20406;-70
2021/12/12 01:26:48;;;;;;;3.13;2.83;;;;;;;9.76;76.17;100039.41;2065569;28;21024;-70
2021/12/12 01:27:49;;;;;;;4.00;2.90;;;;;;;10.39;76.38;100141.94;2065587;28;20828;-70
2021/12/12 01:28:54;;;;;;;4.47;3.00;;;;;;;10.11;76.13;100104.03;2065848;28;20170;-70
2021/12/12 01:29:54;;;;;;;4.03;2.73;;;;;;;10.40;76.04;100157.34;2065385;28;20611;-70
2021/12/12 01:30:58;;;;;;;2.90;2.47;;;;;;;10.29;75.99;100135.50;2072741;28;20449;-70
2021/12/12 01:32:01;;;;;;;2.40;2.20;;;;;;;10.42;75.73;100141.84;2072690;28;20232;-70
2021/12/12 01:33:02;;;;;;;2.77;2.47;;;;;;;10.37;75.78;100136.84;2065050;28;20497;-70
2021/12/12 01:34:11;;;;;;;3.70;2.20;;;;;;;10.03;75.60;100097.13;2065534;28;20851;-70
2021/12/12 01:35:15;;;;;;;2.57;2.07;;;;;;;10.41;75.91;100148.56;2065486;28;20409;-70
2021/12/12 01:36:28;;;;;;;2.47;2.00;;;;;;;10.44;75.63;100146.91;2065450;28;20851;-70
2021/12/12 01:38:53;;;;;;;2.53;2.33;;;;;;;10.43;75.58;100148.13;2065551;28;20888;-70
2021/12/12 01:40:06;;;;;;;2.83;2.40;;;;;;;10.45;75.38;100159.56;2065575;28;20408;-70
2021/12/12 01:41:06;;;;;;;2.90;2.60;;;;;;;10.10;75.60;100111.56;2065482;28;20410;-70
2021/12/12 01:42:19;;;;;;;2.87;2.57;;;;;;;10.38;75.71;100148.69;2065311;28;20420;-70
2021/12/12 01:43:33;;;;;;;4.33;2.37;;;;;;;10.42;75.57;100161.22;2064852;28;20249;-70
2021/12/12 01:44:44;;;;;;;4.00;2.10;;;;;;;10.41;75.58;100154.13;2064796;28;20468;-70
2021/12/12 01:45:48;;;;;;;3.73;2.20;;;;;;;10.38;75.71;100155.03;2065319;28;20812;-70
2021/12/12 01:47:01;;;;;;;3.33;2.10;;;;;;;10.13;75.62;100124.53;2065240;28;20489;-70
2021/12/12 01:48:07;;;;;;;2.27;1.90;;;;;;;10.16;75.83;100123.66;2065356;28;20467;-70
2021/12/12 01:49:16;;;;;;;2.50;1.50;;;;;;;10.29;75.75;100152.13;2065343;28;20406;-70
2021/12/12 01:50:30;;;;;;;2.00;1.80;;;;;;;10.14;75.99;100139.16;2065372;28;20413;-70
2021/12/12 01:51:31;;;;;;;2.03;1.53;;;;;;;10.30;75.98;100141.84;2065371;28;20405;-70
2021/12/12 01:52:33;;;;;;;1.63;1.40;;;;;;;9.94;76.02;100092.22;2064563;28;20532;-70
2021/12/12 01:53:37;;;;;;;2.90;1.27;;;;;;;10.29;75.82;100149.34;2065283;28;20413;-70
2021/12/12 01:54:44;;;;;;;1.33;1.17;;;;;;;10.07;75.86;100114.44;2065234;28;20425;-70
2021/12/12 01:55:59;;;;;;;1.13;1.00;;;;;;;10.17;75.67;100138.25;2065185;28;20394;-70
2021/12/12 01:57:00;;;;;;;1.80;1.07;;;;;;;9.96;75.91;100113.94;2065325;28;20413;-70
2021/12/12 01:58:06;;;;;;;1.00;0.90;;;;;;;10.16;75.79;100131.16;2065363;28;20464;-70
2021/12/12 01:59:07;;;;;;;2.53;1.00;;;;;;;10.10;75.61;100132.94;2064994;28;20812;-70
2021/12/12 02:00:16;;;;;;;1.23;1.03;;;;;;;10.11;75.51;100142.78;2065059;28;20495;-70
2021/12/12 02:01:22;;;;;;;1.50;1.23;;;;;;;10.02;75.54;100139.84;2065257;28;20410;-70
2021/12/12 02:02:27;;;;;;;2.60;1.40;;;;;;;9.90;75.61;100137.84;2064728;28;20500;-70
2021/12/12 02:03:32;;;;;;;2.23;1.73;;;;;;;9.89;75.51;100141.84;2065378;28;20922;-70
2021/12/12 02:04:39;;;;;;;2.23;1.60;;;;;;;9.82;75.40;100139.25;2065340;28;20628;-70
2021/12/12 02:05:40;;;;;;;2.20;1.70;;;;;;;9.86;74.96;100137.16;2064488;28;20450;-70
2021/12/12 02:06:45;;;;;;;2.53;1.60;;;;;;;9.45;74.94;100096.44;2064613;28;20474;-69
2021/12/12 02:07:55;;;;;;;2.60;1.90;;;;;;;9.74;75.24;100138.69;2065417;28;20436;-70
2021/12/12 02:08:58;;;;;;;2.40;1.90;;;;;;;9.71;74.67;100141.53;2064708;28;20425;-70
2021/12/12 02:10:03;;;;;;;2.97;1.93;;;;;;;9.64;74.37;100141.75;2064547;28;20834;-70
2021/12/12 02:11:10;;;;;;;3.63;1.97;;;;;;;9.55;74.44;100122.25;2065280;28;20501;-70
2021/12/12 02:12:11;;;;;;;4.20;1.87;;;;;;;9.37;73.91;100135.78;2064954;28;20795;-70
2021/12/12 02:13:15;;;;;;;2.90;1.80;;;;;;;9.48;74.21;100150.84;2065365;28;20413;-70
2021/12/12 02:14:20;;;;;;;2.23;1.63;;;;;;;9.44;73.96;100144.63;2057137;28;20485;-70
2021/12/12 02:15:20;;;;;;;1.67;1.30;;;;;;;9.38;73.99;100151.16;2061775;28;20442;-70
2021/12/12 02:16:23;;;;;;;2.27;1.47;;;;;;;9.10;74.09;100121.47;2065238;28;20475;-70
2021/12/12 02:17:33;;;;;;;2.73;1.50;;;;;;;9.28;73.90;100138.38;2065196;28;20178;-70
2021/12/12 02:18:38;;;;;;;1.93;1.40;;;;;;;9.24;74.21;100140.47;2064710;28;20414;-70
2021/12/12 02:19:54;;;;;;;2.67;1.37;;;;;;;9.23;74.15;100136.91;2064547;28;20418;-70
2021/12/12 02:21:13;;;;;;;1.00;0.90;;;;;;;9.20;73.81;100137.00;2065259;28;20490;-70
2021/12/12 02:22:35;;;;;;;1.17;0.90;;;;;;;8.91;73.99;100130.66;2064658;28;20914;-70
2021/12/12 02:35:41;;;;;;;1.33;0.47;;;;;;;7.86;74.71;100055.78;2065123;28;20476;-70
2021/12/12 02:36:42;;;;;;;0.40;0.40;;;;;;;8.35;74.47;100132.75;2065087;28;20400;-70
2021/12/12 02:37:43;;;;;;;0.80;0.60;;;;;;;8.53;74.59;100158.00;2065116;28;20416;-70
2021/12/12 02:38:45;;;;;;;0.83;0.60;;;;;;;8.55;75.18;100157.56;2065157;28;20453;-70
2021/12/12 02:39:46;;;;;;;1.10;0.70;;;;;;;8.54;74.98;100145.75;2072450;28;20433;-70
2021/12/12 02:40:52;;;;;;;1.47;0.77;;;;;;;8.57;74.74;100158.69;2072615;28;20427;-70
2021/12/12 02:41:58;;;;;;;0.60;0.60;;;;;;;8.53;74.89;100151.69;2064960;28;20204;-70
2021/12/12 02:43:00;;;;;;;1.20;0.60;;;;;;;8.55;75.21;100157.56;2064456;28;20405;-70
2021/12/12 02:44:04;;;;;;;0.87;0.60;;;;;;;7.94;75.17;100071.00;2072388;28;20425;-70
2021/12/12 02:45:08;;;;;;;1.33;0.70;;;;;;;8.52;75.28;100164.75;2072014;28;20421;-70
2021/12/12 02:46:09;;;;;;;0.87;0.60;;;;;;;8.51;75.75;100154.88;2064477;28;20413;-70
2021/12/12 02:47:18;;;;;;;0.70;0.50;;;;;;;8.51;74.92;100159.66;2063994;28;20478;-70
2021/12/12 02:48:20;;;;;;;0.50;0.50;;;;;;;8.49;74.60;100160.06;2064354;28;20469;-70
2021/12/12 02:49:42;;;;;;;0.60;0.43;;;;;;;7.75;74.02;100074.56;2064858;28;20529;-70
2021/12/12 02:50:47;;;;;;;0.50;0.50;;;;;;;8.09;73.86;100127.44;2064127;28;20409;-70
2021/12/12 02:51:48;;;;;;;0.75;0.40;;;;;;;8.31;73.92;100183.75;2064398;28;20191;-70
2021/12/12 02:52:54;;;;;;;0.38;0.38;;;;;;;8.31;73.87;100173.47;2064432;28;20181;-70
2021/12/12 02:53:56;;;;;;;0.40;0.40;;;;;;;8.32;73.81;100169.53;2064935;28;20166;-70
2021/12/12 02:55:00;;;;;;;0.43;0.30;;;;;;;7.88;73.60;100103.81;2064938;28;20420;-70
2021/12/12 02:56:10;;;;;;;1.63;0.53;;;;;;;8.13;73.24;100150.97;2072196;28;20710;-70
2021/12/12 02:57:12;;;;;;;0.30;0.30;;;;;;;7.89;72.31;100123.91;2071240;28;20465;-69
2021/12/12 02:58:16;;;;;;;1.03;0.50;;;;;;;8.15;73.23;100169.88;2072338;28;20180;-70
2021/12/12 02:59:21;;;;;;;0.45;0.30;;;;;;;7.77;72.97;100119.81;2071961;28;20426;-70
2021/12/12 03:00:27;;;;;;;1.77;0.30;;;;;;;7.69;72.62;100101.09;2064741;28;20181;-70
2021/12/12 03:01:45;;;;;;;1.33;0.37;;;;;;;8.02;72.79;100164.22;2064839;28;20414;-70
2021/12/12 03:02:48;;;;;;;0.25;0.25;;;;;;;8.01;72.68;100159.91;2064334;28;20439;-70
2021/12/12 03:03:50;;;;;;;0.52;0.30;;;;;;;7.86;72.14;100128.31;2064596;28;20265;-70
2021/12/12 03:04:54;;;;;;;0.73;0.28;;;;;;;8.01;72.19;100162.69;2064865;28;20178;-70
2021/12/12 03:05:55;;;;;;;2.90;0.50;;;;;;;7.97;72.24;100153.69;2064880;28;20639;-70
2021/12/12 03:06:57;;;;;;;0.55;0.20;;;;;;;7.97;72.49;100147.38;2064839;28;20750;-70
2021/12/12 03:07:58;;;;;;;0.23;0.23;;;;;;;7.94;72.05;100149.00;2064808;28;20171;-70
2021/12/12 03:09:25;;;;;;;0.30;0.20;;;;;;;7.70;71.60;100130.22;2072367;28;20424;-70
2021/12/12 03:10:31;;;;;;;1.07;0.30;;;;;;;7.42;72.01;100081.13;2060874;28;20188;-70
2021/12/12 03:11:31;;;;;;;0.30;0.20;;;;;;;7.09;72.30;100046.34;2064625;28;20422;-70
2021/12/12 03:12:35;;;;;;;0.97;0.50;;;;;;;7.67;72.67;100134.59;2063143;28;20690;-70
2021/12/12 03:13:37;;;;;;;0.45;0.35;;;;;;;7.38;72.27;100091.47;2064052;28;20183;-70
2021/12/12 03:14:40;;;;;;;0.20;0.20;;;;;;;7.53;71.90;100131.34;2064849;28;20183;-69
2021/12/12 03:15:42;;;;;;;0.82;0.40;;;;;;;7.74;72.19;100153.00;2063925;28;20186;-70
2021/12/12 03:16:44;;;;;;;0.73;0.25;;;;;;;7.70;72.80;100153.03;2064064;28;20179;-70
2021/12/12 03:17:47;;;;;;;0.32;0.28;;;;;;;7.21;72.13;100079.56;2064163;28;20186;-70
2021/12/12 03:18:48;;;;;;;0.30;0.30;;;;;;;7.55;72.14;100118.69;2064597;28;20266;-70
2021/12/12 03:19:55;;;;;;;0.20;0.20;;;;;;;7.34;72.46;100096.28;2064591;28;20660;-70
2021/12/12 03:21:14;;;;;;;0.50;0.20;;;;;;;7.26;71.96;100076.34;2064800;28;20168;-69
2021/12/12 03:22:15;;;;;;;1.02;0.30;;;;;;;7.73;71.62;100163.22;2064249;28;20600;-70
2021/12/12 03:23:23;;;;;;;0.57;0.20;;;;;;;7.66;72.31;100179.13;2072209;28;20261;-70
2021/12/12 03:24:26;;;;;;;0.50;0.30;;;;;;;7.61;71.98;100168.59;2071070;28;20166;-70
2021/12/12 03:25:30;;;;;;;0.50;0.30;;;;;;;7.57;72.15;100182.47;2064475;28;20180;-70
2021/12/12 03:26:31;;;;;;;1.45;0.40;;;;;;;7.29;72.22;100149.88;2064646;28;20196;-70
2021/12/12 03:27:32;;;;;;;0.35;0.30;;;;;;;7.57;72.74;100189.94;2064624;28;20183;-70
2021/12/12 03:28:35;;;;;;;0.57;0.30;;;;;;;7.55;72.24;100190.38;2064706;28;20186;-70
2021/12/12 03:29:38;;;;;;;0.20;0.20;;;;;;;7.56;72.31;100202.97;2064590;28;20528;-70
2021/12/12 03:30:40;;;;;;;0.20;0.20;;;;;;;7.54;72.16;100204.59;2064604;28;20182;-70
2021/12/12 03:31:44;;;;;;;0.20;0.20;;;;;;;6.89;72.50;100112.44;2063990;28;20178;-71
2021/12/12 03:32:46;;;;;;;0.20;0.20;;;;;;;7.49;71.49;100208.59;2063431;28;20173;-70
2021/12/12 03:33:47;;;;;;;0.22;0.20;;;;;;;7.51;72.73;100211.72;2064664;28;20266;-70
2021/12/12 03:34:55;;;;;;;0.52;0.30;;;;;;;7.45;71.92;100221.69;2064507;28;20736;-69
2021/12/12 03:35:58;;;;;;;0.40;0.30;;;;;;;7.49;71.94;100222.38;2063771;28;20174;-70
2021/12/12 03:37:00;;;;;;;0.30;0.20;;;;;;;7.19;71.48;100197.72;2063921;28;20316;-70
2021/12/12 03:38:02;;;;;;;0.10;0.10;;;;;;;7.30;71.93;100212.09;2064069;28;20186;-70
2021/12/12 03:39:10;;;;;;;0.60;0.30;;;;;;;7.42;71.77;100249.28;2064347;28;20612;-70
2021/12/12 03:40:22;;;;;;;0.30;0.20;;;;;;;7.42;72.27;100243.78;2064567;28;20584;-70
2021/12/12 03:41:27;;;;;;;0.68;0.30;;;;;;;7.46;71.48;100248.03;2064626;28;20167;-70
2021/12/12 03:42:31;;;;;;;0.90;0.20;;;;;;;7.46;72.15;100250.00;2063702;28;20664;-70
2021/12/12 03:43:33;;;;;;;0.77;0.30;;;;;;;7.40;72.12;100235.94;2064563;28;20187;-70
2021/12/12 03:44:35;;;;;;;0.82;0.20;;;;;;;7.40;71.62;100238.69;2063911;28;21035;-70
2021/12/12 03:45:37;;;;;;;0.50;0.30;;;;;;;7.38;71.79;100238.31;2063827;28;20176;-70
2021/12/12 03:46:39;;;;;;;0.40;0.20;;;;;;;7.37;70.64;100217.47;2064281;28;20232;-70
2021/12/12 03:47:48;;;;;;;0.20;0.20;;;;;;;7.31;71.14;100230.19;2064431;28;20253;-70
2021/12/12 03:48:49;;;;;;;0.70;0.30;;;;;;;6.86;71.29;100164.81;2064580;28;20179;-70
2021/12/12 03:49:51;;;;;;;0.20;0.20;;;;;;;7.15;71.36;100230.06;2064595;28;20186;-70
2021/12/12 03:50:54;;;;;;;0.47;0.30;;;;;;;7.12;70.47;100227.38;2064485;28;20200;-70
2021/12/12 03:51:57;;;;;;;0.40;0.30;;;;;;;7.17;70.65;100248.94;2064561;28;20180;-70
2021/12/12 03:52:58;;;;;;;0.30;0.22;;;;;;;7.22;70.57;100259.50;2063698;28;20343;-70
2021/12/12 03:53:59;;;;;;;0.43;0.30;;;;;;;7.00;70.86;100225.19;2064454;28;20178;-70
2021/12/12 03:55:01;;;;;;;0.40;0.40;;;;;;;7.23;70.79;100266.56;2064567;28;20199;-70
2021/12/12 03:56:04;;;;;;;0.38;0.30;;;;;;;6.62;70.03;100174.25;2063832;28;20237;-70
2021/12/12 03:57:06;;;;;;;0.50;0.20;;;;;;;7.15;69.82;100259.59;2068081;28;20205;-70
2021/12/12 03:58:07;;;;;;;0.20;0.20;;;;;;;7.12;69.64;100269.47;2064550;28;20174;-70
2021/12/12 03:59:10;;;;;;;0.60;0.30;;;;;;;7.19;69.75;100269.38;2064446;28;20257;-70
2021/12/12 04:00:20;;;;;;;0.30;0.30;;;;;;;7.19;69.71;100279.59;2064358;28;20175;-70
2021/12/12 04:01:52;;;;;;;0.20;0.20;;;;;;;7.12;69.52;100269.47;2064678;28;20213;-70
2021/12/12 04:02:54;;;;;;;0.47;0.40;;;;;;;7.07;69.61;100274.69;2061515;28;20741;-70
2021/12/12 04:03:57;;;;;;;0.20;0.20;;;;;;;7.00;69.81;100285.78;2064455;28;20563;-70
2021/12/12 04:04:58;;;;;;;0.35;0.28;;;;;;;6.94;69.45;100287.47;2064431;28;20644;-70
2021/12/12 04:06:02;;;;;;;0.30;0.20;;;;;;;6.90;69.97;100301.28;2064463;28;20201;-70
2021/12/12 04:07:09;;;;;;;0.52;0.28;;;;;;;6.17;69.67;100195.72;2064196;28;20195;-70
2021/12/12 04:08:10;;;;;;;0.20;0.20;;;;;;;6.90;70.57;100295.78;2064451;28;20165;-70
2021/12/12 04:09:13;;;;;;;0.37;0.37;;;;;;;6.34;69.92;100230.47;2064416;28;20209;-70
2021/12/12 04:10:18;;;;;;;1.00;0.10;;;;;;;6.89;69.13;100304.44;2064504;28;20541;-70
2021/12/12 04:11:23;;;;;;;0.45;0.20;;;;;;;6.83;68.89;100317.91;2064529;28;20204;-70
2021/12/12 04:12:24;;;;;;;0.20;0.20;;;;;;;6.41;69.43;100268.13;2070884;28;20347;-71
2021/12/12 04:13:24;;;;;;;0.50;0.30;;;;;;;6.67;69.24;100306.69;2071877;28;20184;-70
2021/12/12 04:14:26;;;;;;;0.30;0.20;;;;;;;6.79;69.78;100317.19;2064423;28;20175;-70
2021/12/12 04:15:27;;;;;;;0.38;0.20;;;;;;;6.77;69.18;100329.81;2064377;28;20184;-69
2021/12/12 04:16:30;;;;;;;0.33;0.30;;;;;;;5.95;69.44;100201.91;2064349;28;20232;-69
2021/12/12 04:17:32;;;;;;;0.38;0.30;;;;;;;6.70;69.15;100322.41;2064385;28;20456;-70
2021/12/12 04:18:32;;;;;;;0.32;0.30;;;;;;;6.19;69.63;100244.81;2064423;28;20659;-69
2021/12/12 04:19:33;;;;;;;0.43;0.23;;;;;;;6.61;69.59;100316.63;2063662;28;20661;-69
2021/12/12 04:20:37;;;;;;;0.40;0.30;;;;;;;6.66;69.65;100321.66;2063990;28;20183;-70
2021/12/12 04:21:39;;;;;;;0.50;0.30;;;;;;;6.63;69.99;100319.75;2064287;28;20181;-70
2021/12/12 04:22:39;;;;;;;0.60;0.28;;;;;;;6.42;69.62;100286.97;2063035;28;20198;-70
2021/12/12 04:23:41;;;;;;;1.37;0.30;;;;;;;6.14;69.10;100235.03;2063779;28;20179;-70
2021/12/12 04:24:44;;;;;;;0.35;0.20;;;;;;;6.62;69.47;100312.66;2064465;28;20213;-70
2021/12/12 04:25:45;;;;;;;0.45;0.30;;;;;;;6.67;69.11;100316.94;2064400;28;20674;-70
2021/12/12 04:26:46;;;;;;;1.13;0.30;;;;;;;6.65;69.06;100316.56;2064305;28;20556;-70
2021/12/12 04:27:47;;;;;;;0.50;0.35;;;;;;;6.58;69.61;100317.47;2071746;28;20185;-70
2021/12/12 04:28:55;;;;;;;0.30;0.30;;;;;;;6.58;69.12;100322.19;2071905;28;20256;-70
2021/12/12 04:29:56;;;;;;;0.47;0.20;;;;;;;5.80;68.89;100201.25;2064231;28;20545;-70
2021/12/12 04:30:57;;;;;;;0.30;0.30;;;;;;;6.56;68.99;100311.56;2064382;28;20177;-69
2021/12/12 04:32:03;;;;;;;0.20;0.20;;;;;;;6.51;69.01;100308.50;2064334;28;20177;-70
2021/12/12 04:33:04;;;;;;;0.20;0.20;;;;;;;6.52;68.42;100313.56;2063609;28;20176;-69
2021/12/12 04:34:07;;;;;;;0.20;0.20;;;;;;;6.55;69.16;100310.00;2063666;28;20234;-70
2021/12/12 04:35:13;;;;;;;0.45;0.20;;;;;;;6.01;68.49;100255.25;2063581;28;20683;-69
2021/12/12 04:36:13;;;;;;;0.20;0.20;;;;;;;5.83;68.57;100230.69;2063528;28;20168;-70
2021/12/12 04:37:15;;;;;;;1.20;0.33;;;;;;;6.38;68.57;100312.97;2063721;28;20220;-70
2021/12/12 04:38:15;;;;;;;0.30;0.30;;;;;;;6.43;68.82;100313.31;2064147;28;20170;-70
2021/12/12 04:39:25;;;;;;;0.60;0.40;;;;;;;6.47;68.71;100318.78;2063691;28;20519;-70
2021/12/12 04:40:28;;;;;;;1.10;0.30;;;;;;;6.42;68.68;100311.75;2063840;28;20707;-70
2021/12/12 04:41:29;;;;;;;0.63;0.32;;;;;;;6.49;68.87;100311.66;2064360;28;20178;-70
2021/12/12 04:42:33;;;;;;;0.20;0.20;;;;;;;6.48;68.32;100323.88;2063689;28;20484;-69
2021/12/12 04:43:34;;;;;;;0.25;0.25;;;;;;;6.39;68.73;100323.59;2064165;28;20859;-70
2021/12/12 04:44:37;;;;;;;0.20;0.20;;;;;;;6.42;69.27;100339.25;2064454;28;20284;-70
2021/12/12 04:46:03;;;;;;;1.00;0.43;;;;;;;6.41;68.48;100356.22;2064210;28;20180;-70
2021/12/12 04:50:16;;;;;;;0.43;0.20;;;;;;;5.89;68.59;100295.06;2064258;28;20600;-70
2021/12/12 04:51:27;;;;;;;0.20;0.20;;;;;;;6.31;69.23;100377.13;2064300;28;20635;-70
2021/12/12 04:53:06;;;;;;;0.50;0.30;;;;;;;6.32;69.20;100375.16;2062817;28;20197;-70
2021/12/12 04:54:15;;;;;;;0.40;0.20;;;;;;;6.29;68.77;100381.47;2063921;28;20193;-70
2021/12/12 04:55:20;;;;;;;0.22;0.22;;;;;;;6.24;69.36;100384.69;2065619;28;20231;-70
2021/12/12 04:56:58;;;;;;;0.22;0.20;;;;;;;6.25;68.76;100386.25;2065121;28;20607;-70
2021/12/12 04:58:16;;;;;;;0.30;0.20;;;;;;;5.70;68.60;100314.84;2057431;28;20243;-70
2021/12/12 04:59:19;;;;;;;0.20;0.20;;;;;;;6.22;68.67;100409.09;2057585;28;20173;-70
2021/12/12 05:00:26;;;;;;;0.20;0.20;;;;;;;6.17;68.99;100410.31;2056769;28;20204;-70
2021/12/12 05:02:07;;;;;;;1.17;0.25;;;;;;;6.20;68.11;100423.25;2057161;28;20736;-70
2021/12/12 05:03:21;;;;;;;1.38;0.17;;;;;;;5.55;67.92;100321.66;2057350;28;20179;-70
2021/12/12 05:04:32;;;;;;;0.30;0.20;;;;;;;6.17;68.23;100429.56;2057529;28;20637;-70
2021/12/12 05:05:40;;;;;;;0.52;0.20;;;;;;;6.20;67.98;100442.50;2063260;28;20233;-70
2021/12/12 05:06:44;;;;;;;0.28;0.20;;;;;;;6.21;68.61;100444.06;2065659;28;20608;-70
2021/12/12 05:07:58;;;;;;;0.22;0.20;;;;;;;6.23;68.41;100454.66;2064902;28;20192;-70
2021/12/12 05:09:04;;;;;;;0.30;0.20;;;;;;;5.58;67.35;100380.53;2065021;28;20289;-69
2021/12/12 05:10:11;;;;;;;0.38;0.20;;;;;;;6.11;67.85;100457.94;2065676;28;20169;-70
2021/12/12 05:11:20;;;;;;;0.28;0.20;;;;;;;6.03;67.70;100473.69;2065595;28;20173;-70
2021/12/12 05:12:57;;;;;;;0.32;0.17;;;;;;;6.04;67.90;100474.47;2064677;28;20355;-70
2021/12/12 05:14:05;;;;;;;0.57;0.28;;;;;;;6.10;68.16;100465.38;2063622;28;20190;-71
2021/12/12 05:15:17;;;;;;;0.28;0.20;;;;;;;6.07;67.61;100463.47;2057590;28;20166;-70
2021/12/12 05:16:33;;;;;;;0.25;0.25;;;;;;;6.02;66.94;100461.13;2064938;28;20188;-70
2021/12/12 05:17:43;;;;;;;0.20;0.20;;;;;;;5.44;67.65;100378.66;2063150;28;20170;-70
2021/12/12 05:18:50;;;;;;;0.25;0.25;;;;;;;5.95;68.01;100465.91;2057507;28;20174;-70
2021/12/12 05:19:59;;;;;;;0.40;0.30;;;;;;;5.97;67.40;100460.78;2056815;28;20215;-70
2021/12/12 05:21:07;;;;;;;0.28;0.20;;;;;;;5.93;67.09;100465.53;2057012;28;20595;-70
2021/12/12 05:22:15;;;;;;;1.75;0.40;;;;;;;5.62;67.15;100434.31;2064585;28;20193;-70
2021/12/12 05:23:20;;;;;;;0.60;0.38;;;;;;;5.84;66.77;100479.72;2064029;28;20174;-70
2021/12/12 05:24:24;;;;;;;0.50;0.30;;;;;;;5.26;67.32;100419.22;2057395;28;20188;-70
2021/12/12 05:25:49;;;;;;;0.25;0.20;;;;;;;5.03;67.13;100382.47;2057541;28;20926;-70